sensor_id;sensor_type;location;lat;lon;timestamp;temperature;humidity
81192;DHT22;70665;47.652;-2.730;2023-09-19T00:01:33;16.20;78.40
81192;DHT22;70665;47.652;-2.730;2023-09-19T00:03:59;16.20;78.90
81192;DHT22;70665;47.652;-2.730;2023-09-19T00:06:28;16.10;79.30
81192;DHT22;70665;47.652;-2.730;2023-09-19T00:08:57;16.10;79.10
81192;DHT22;70665;47.652;-2.730;2023-09-19T00:11:24;16.00;79.20
81192;DHT22;70665;47.652;-2.730;2023-09-19T00:13:52;16.10;79.90
81192;DHT22;70665;47.652;-2.730;2023-09-19T00:16:17;16.00;81.30
81192;DHT22;70665;47.652;-2.730;2023-09-19T00:18:44;16.00;79.50
81192;DHT22;70665;47.652;-2.730;2023-09-19T00:21:10;16.00;79.60
81192;DHT22;70665;47.652;-2.730;2023-09-19T00:23:36;15.90;79.30
81192;DHT22;70665;47.652;-2.730;2023-09-19T00:26:02;16.00;81.50
81192;DHT22;70665;47.652;-2.730;2023-09-19T00:28:29;15.90;79.60
81192;DHT22;70665;47.652;-2.730;2023-09-19T00:30:58;15.80;79.70
81192;DHT22;70665;47.652;-2.730;2023-09-19T00:33:27;15.80;79.40
81192;DHT22;70665;47.652;-2.730;2023-09-19T00:35:56;15.80;79.50
81192;DHT22;70665;47.652;-2.730;2023-09-19T00:38:24;15.90;79.50
81192;DHT22;70665;47.652;-2.730;2023-09-19T00:40:53;15.80;79.30
81192;DHT22;70665;47.652;-2.730;2023-09-19T00:43:20;15.90;79.40
81192;DHT22;70665;47.652;-2.730;2023-09-19T00:45:51;15.80;79.80
81192;DHT22;70665;47.652;-2.730;2023-09-19T00:48:17;15.90;79.40
81192;DHT22;70665;47.652;-2.730;2023-09-19T00:50:44;16.00;79.40
81192;DHT22;70665;47.652;-2.730;2023-09-19T00:53:14;15.90;79.70
81192;DHT22;70665;47.652;-2.730;2023-09-19T00:55:41;16.00;79.40
81192;DHT22;70665;47.652;-2.730;2023-09-19T00:58:08;16.10;79.70
81192;DHT22;70665;47.652;-2.730;2023-09-19T01:00:36;16.10;79.50
81192;DHT22;70665;47.652;-2.730;2023-09-19T01:03:02;16.20;79.40
81192;DHT22;70665;47.652;-2.730;2023-09-19T01:05:28;16.20;79.10
81192;DHT22;70665;47.652;-2.730;2023-09-19T01:07:55;16.30;79.20
81192;DHT22;70665;47.652;-2.730;2023-09-19T01:10:20;16.30;81.10
81192;DHT22;70665;47.652;-2.730;2023-09-19T01:15:39;16.30;79.60
81192;DHT22;70665;47.652;-2.730;2023-09-19T01:31:45;16.20;79.60
81192;DHT22;70665;47.652;-2.730;2023-09-19T01:34:11;16.20;79.50
81192;DHT22;70665;47.652;-2.730;2023-09-19T01:36:37;16.30;81.40
81192;DHT22;70665;47.652;-2.730;2023-09-19T01:39:05;16.20;79.30
81192;DHT22;70665;47.652;-2.730;2023-09-19T01:42:09;16.30;80.50
81192;DHT22;70665;47.652;-2.730;2023-09-19T01:44:43;16.30;79.30
81192;DHT22;70665;47.652;-2.730;2023-09-19T01:47:26;16.20;80.60
81192;DHT22;70665;47.652;-2.730;2023-09-19T01:49:55;16.30;79.20
81192;DHT22;70665;47.652;-2.730;2023-09-19T01:52:28;16.40;79.70
81192;DHT22;70665;47.652;-2.730;2023-09-19T01:54:59;16.40;79.50
81192;DHT22;70665;47.652;-2.730;2023-09-19T01:57:34;16.40;79.30
81192;DHT22;70665;47.652;-2.730;2023-09-19T02:00:06;16.40;79.10
81192;DHT22;70665;47.652;-2.730;2023-09-19T02:02:37;16.40;79.80
81192;DHT22;70665;47.652;-2.730;2023-09-19T02:05:04;16.50;79.00
81192;DHT22;70665;47.652;-2.730;2023-09-19T02:07:30;16.40;78.90
81192;DHT22;70665;47.652;-2.730;2023-09-19T02:09:59;16.60;79.20
81192;DHT22;70665;47.652;-2.730;2023-09-19T02:12:30;16.50;79.20
81192;DHT22;70665;47.652;-2.730;2023-09-19T02:14:56;16.50;79.60
81192;DHT22;70665;47.652;-2.730;2023-09-19T02:17:22;16.50;79.40
81192;DHT22;70665;47.652;-2.730;2023-09-19T02:19:52;16.50;80.20
81192;DHT22;70665;47.652;-2.730;2023-09-19T02:22:18;16.40;79.30
81192;DHT22;70665;47.652;-2.730;2023-09-19T02:24:43;16.40;79.80
81192;DHT22;70665;47.652;-2.730;2023-09-19T02:27:09;16.50;80.20
81192;DHT22;70665;47.652;-2.730;2023-09-19T02:29:38;16.50;79.60
81192;DHT22;70665;47.652;-2.730;2023-09-19T02:32:03;16.60;81.50
81192;DHT22;70665;47.652;-2.730;2023-09-19T02:34:30;16.40;79.80
81192;DHT22;70665;47.652;-2.730;2023-09-19T02:36:56;16.40;80.00
81192;DHT22;70665;47.652;-2.730;2023-09-19T02:39:22;16.40;80.10
81192;DHT22;70665;47.652;-2.730;2023-09-19T02:41:49;16.50;80.00
81192;DHT22;70665;47.652;-2.730;2023-09-19T02:44:14;16.50;80.00
81192;DHT22;70665;47.652;-2.730;2023-09-19T02:46:40;16.40;80.00
81192;DHT22;70665;47.652;-2.730;2023-09-19T02:49:06;16.50;80.20
81192;DHT22;70665;47.652;-2.730;2023-09-19T02:51:32;16.50;82.50
81192;DHT22;70665;47.652;-2.730;2023-09-19T02:53:59;16.40;80.40
81192;DHT22;70665;47.652;-2.730;2023-09-19T02:56:24;16.40;80.50
81192;DHT22;70665;47.652;-2.730;2023-09-19T02:58:50;16.30;80.30
81192;DHT22;70665;47.652;-2.730;2023-09-19T03:01:17;16.20;80.60
81192;DHT22;70665;47.652;-2.730;2023-09-19T03:03:43;16.20;80.50
81192;DHT22;70665;47.652;-2.730;2023-09-19T03:06:11;16.20;80.70
81192;DHT22;70665;47.652;-2.730;2023-09-19T03:08:37;16.00;80.70
81192;DHT22;70665;47.652;-2.730;2023-09-19T03:11:05;16.10;80.80
81192;DHT22;70665;47.652;-2.730;2023-09-19T03:13:36;16.10;81.80
81192;DHT22;70665;47.652;-2.730;2023-09-19T03:16:04;16.00;80.80
81192;DHT22;70665;47.652;-2.730;2023-09-19T03:18:31;16.00;81.10
81192;DHT22;70665;47.652;-2.730;2023-09-19T03:20:57;15.90;81.10
81192;DHT22;70665;47.652;-2.730;2023-09-19T03:23:25;16.00;80.50
81192;DHT22;70665;47.652;-2.730;2023-09-19T03:25:51;16.00;80.60
81192;DHT22;70665;47.652;-2.730;2023-09-19T03:28:18;15.90;80.70
81192;DHT22;70665;47.652;-2.730;2023-09-19T03:30:43;15.90;83.10
81192;DHT22;70665;47.652;-2.730;2023-09-19T03:33:09;15.90;81.00
81192;DHT22;70665;47.652;-2.730;2023-09-19T03:35:38;15.90;80.80
81192;DHT22;70665;47.652;-2.730;2023-09-19T03:38:05;15.80;81.10
81192;DHT22;70665;47.652;-2.730;2023-09-19T03:40:30;15.80;83.30
81192;DHT22;70665;47.652;-2.730;2023-09-19T03:42:58;15.80;81.30
81192;DHT22;70665;47.652;-2.730;2023-09-19T03:45:25;15.80;81.20
81192;DHT22;70665;47.652;-2.730;2023-09-19T03:47:51;15.80;83.50
81192;DHT22;70665;47.652;-2.730;2023-09-19T03:50:17;15.70;81.30
81192;DHT22;70665;47.652;-2.730;2023-09-19T03:52:43;15.70;83.70
81192;DHT22;70665;47.652;-2.730;2023-09-19T03:55:09;15.60;81.30
81192;DHT22;70665;47.652;-2.730;2023-09-19T03:57:38;15.50;81.80
81192;DHT22;70665;47.652;-2.730;2023-09-19T04:00:04;15.60;81.60
81192;DHT22;70665;47.652;-2.730;2023-09-19T04:02:39;15.60;81.60
81192;DHT22;70665;47.652;-2.730;2023-09-19T04:05:05;15.60;81.50
81192;DHT22;70665;47.652;-2.730;2023-09-19T04:07:30;15.60;83.70
81192;DHT22;70665;47.652;-2.730;2023-09-19T04:09:56;15.60;82.00
81192;DHT22;70665;47.652;-2.730;2023-09-19T04:12:22;15.60;81.90
81192;DHT22;70665;47.652;-2.730;2023-09-19T04:14:47;15.70;81.90
81192;DHT22;70665;47.652;-2.730;2023-09-19T04:17:13;15.70;81.80
81192;DHT22;70665;47.652;-2.730;2023-09-19T04:19:39;15.70;84.70
81192;DHT22;70665;47.652;-2.730;2023-09-19T04:22:06;16.00;81.70
81192;DHT22;70665;47.652;-2.730;2023-09-19T04:24:32;16.10;81.50
81192;DHT22;70665;47.652;-2.730;2023-09-19T04:26:58;16.30;83.70
81192;DHT22;70665;47.652;-2.730;2023-09-19T04:29:24;16.40;80.90
81192;DHT22;70665;47.652;-2.730;2023-09-19T04:31:52;16.60;80.70
81192;DHT22;70665;47.652;-2.730;2023-09-19T04:34:17;16.70;81.70
81192;DHT22;70665;47.652;-2.730;2023-09-19T04:36:43;16.80;80.00
81192;DHT22;70665;47.652;-2.730;2023-09-19T04:39:09;17.00;79.80
81192;DHT22;70665;47.652;-2.730;2023-09-19T04:41:36;17.00;79.60
81192;DHT22;70665;47.652;-2.730;2023-09-19T04:44:06;17.10;79.70
81192;DHT22;70665;47.652;-2.730;2023-09-19T04:46:33;17.20;79.40
81192;DHT22;70665;47.652;-2.730;2023-09-19T04:48:58;17.30;80.90
81192;DHT22;70665;47.652;-2.730;2023-09-19T04:51:24;17.30;79.60
81192;DHT22;70665;47.652;-2.730;2023-09-19T04:53:51;17.40;79.50
81192;DHT22;70665;47.652;-2.730;2023-09-19T04:56:16;17.60;79.40
81192;DHT22;70665;47.652;-2.730;2023-09-19T04:58:42;17.60;78.90
81192;DHT22;70665;47.652;-2.730;2023-09-19T05:01:08;17.70;78.70
81192;DHT22;70665;47.652;-2.730;2023-09-19T05:03:37;17.90;78.30
81192;DHT22;70665;47.652;-2.730;2023-09-19T05:06:03;17.90;78.00
81192;DHT22;70665;47.652;-2.730;2023-09-19T05:08:30;18.00;78.00
81192;DHT22;70665;47.652;-2.730;2023-09-19T05:10:56;18.00;77.80
81192;DHT22;70665;47.652;-2.730;2023-09-19T05:13:22;18.10;78.30
81192;DHT22;70665;47.652;-2.730;2023-09-19T05:15:52;17.90;78.60
81192;DHT22;70665;47.652;-2.730;2023-09-19T05:18:18;18.00;79.20
81192;DHT22;70665;47.652;-2.730;2023-09-19T05:20:43;18.00;78.10
81192;DHT22;70665;47.652;-2.730;2023-09-19T05:23:09;18.00;77.80
81192;DHT22;70665;47.652;-2.730;2023-09-19T05:25:38;18.10;77.70
81192;DHT22;70665;47.652;-2.730;2023-09-19T05:28:09;18.10;79.30
81192;DHT22;70665;47.652;-2.730;2023-09-19T05:30:37;18.10;78.00
81192;DHT22;70665;47.652;-2.730;2023-09-19T05:33:04;18.10;78.40
81192;DHT22;70665;47.652;-2.730;2023-09-19T05:35:30;18.10;80.00
81192;DHT22;70665;47.652;-2.730;2023-09-19T05:37:56;18.20;79.40
81192;DHT22;70665;47.652;-2.730;2023-09-19T05:40:23;18.10;80.40
81192;DHT22;70665;47.652;-2.730;2023-09-19T05:42:49;18.10;79.40
81192;DHT22;70665;47.652;-2.730;2023-09-19T05:45:16;18.20;78.80
81192;DHT22;70665;47.652;-2.730;2023-09-19T05:47:48;18.20;78.20
81192;DHT22;70665;47.652;-2.730;2023-09-19T05:50:14;18.20;78.40
81192;DHT22;70665;47.652;-2.730;2023-09-19T05:52:42;18.40;78.00
81192;DHT22;70665;47.652;-2.730;2023-09-19T05:55:09;18.30;78.10
81192;DHT22;70665;47.652;-2.730;2023-09-19T05:57:36;18.30;77.90
81192;DHT22;70665;47.652;-2.730;2023-09-19T06:00:08;18.30;77.70
81192;DHT22;70665;47.652;-2.730;2023-09-19T06:02:39;18.30;78.70
81192;DHT22;70665;47.652;-2.730;2023-09-19T06:05:06;18.20;79.20
81192;DHT22;70665;47.652;-2.730;2023-09-19T06:07:34;18.30;79.40
81192;DHT22;70665;47.652;-2.730;2023-09-19T06:10:06;18.40;78.40
81192;DHT22;70665;47.652;-2.730;2023-09-19T06:12:32;18.30;77.70
81192;DHT22;70665;47.652;-2.730;2023-09-19T06:14:59;18.50;77.60
81192;DHT22;70665;47.652;-2.730;2023-09-19T06:17:25;18.50;78.10
81192;DHT22;70665;47.652;-2.730;2023-09-19T06:19:52;18.50;77.60
81192;DHT22;70665;47.652;-2.730;2023-09-19T06:22:18;18.70;77.10
81192;DHT22;70665;47.652;-2.730;2023-09-19T06:24:44;18.70;78.10
81192;DHT22;70665;47.652;-2.730;2023-09-19T06:27:10;18.70;77.30
81192;DHT22;70665;47.652;-2.730;2023-09-19T06:29:36;18.70;77.70
81192;DHT22;70665;47.652;-2.730;2023-09-19T06:32:07;18.90;77.40
81192;DHT22;70665;47.652;-2.730;2023-09-19T06:34:34;18.80;77.30
81192;DHT22;70665;47.652;-2.730;2023-09-19T06:36:59;18.90;77.00
81192;DHT22;70665;47.652;-2.730;2023-09-19T06:39:25;19.00;76.70
81192;DHT22;70665;47.652;-2.730;2023-09-19T06:41:52;19.00;76.70
81192;DHT22;70665;47.652;-2.730;2023-09-19T06:44:19;19.10;77.20
81192;DHT22;70665;47.652;-2.730;2023-09-19T06:46:47;19.20;76.40
81192;DHT22;70665;47.652;-2.730;2023-09-19T06:49:15;19.20;76.70
81192;DHT22;70665;47.652;-2.730;2023-09-19T06:51:41;19.30;76.00
81192;DHT22;70665;47.652;-2.730;2023-09-19T06:54:07;19.40;75.70
81192;DHT22;70665;47.652;-2.730;2023-09-19T06:56:33;19.40;76.30
81192;DHT22;70665;47.652;-2.730;2023-09-19T06:58:58;19.50;75.90
81192;DHT22;70665;47.652;-2.730;2023-09-19T07:01:24;19.60;75.40
81192;DHT22;70665;47.652;-2.730;2023-09-19T07:03:50;19.70;75.00
81192;DHT22;70665;47.652;-2.730;2023-09-19T07:06:16;19.90;74.90
81192;DHT22;70665;47.652;-2.730;2023-09-19T07:08:43;20.00;74.60
81192;DHT22;70665;47.652;-2.730;2023-09-19T07:11:08;20.10;73.90
81192;DHT22;70665;47.652;-2.730;2023-09-19T07:13:34;20.10;73.50
81192;DHT22;70665;47.652;-2.730;2023-09-19T07:16:01;20.30;73.50
81192;DHT22;70665;47.652;-2.730;2023-09-19T07:18:26;20.30;73.90
81192;DHT22;70665;47.652;-2.730;2023-09-19T07:20:59;20.30;74.00
81192;DHT22;70665;47.652;-2.730;2023-09-19T07:23:30;20.20;73.80
81192;DHT22;70665;47.652;-2.730;2023-09-19T07:26:00;20.00;73.80
81192;DHT22;70665;47.652;-2.730;2023-09-19T07:28:26;20.10;73.20
81192;DHT22;70665;47.652;-2.730;2023-09-19T07:30:53;20.00;73.60
81192;DHT22;70665;47.652;-2.730;2023-09-19T07:33:19;20.00;73.00
81192;DHT22;70665;47.652;-2.730;2023-09-19T07:35:48;20.00;71.80
81192;DHT22;70665;47.652;-2.730;2023-09-19T07:38:14;20.10;71.60
81192;DHT22;70665;47.652;-2.730;2023-09-19T07:40:39;20.10;70.90
81192;DHT22;70665;47.652;-2.730;2023-09-19T07:43:05;20.10;70.90
81192;DHT22;70665;47.652;-2.730;2023-09-19T07:45:32;20.20;70.60
81192;DHT22;70665;47.652;-2.730;2023-09-19T07:47:57;20.20;71.50
81192;DHT22;70665;47.652;-2.730;2023-09-19T07:50:23;20.10;71.50
81192;DHT22;70665;47.652;-2.730;2023-09-19T07:52:50;20.30;71.40
81192;DHT22;70665;47.652;-2.730;2023-09-19T07:55:19;20.30;71.40
81192;DHT22;70665;47.652;-2.730;2023-09-19T07:57:48;20.20;71.50
81192;DHT22;70665;47.652;-2.730;2023-09-19T08:00:14;20.30;71.40
81192;DHT22;70665;47.652;-2.730;2023-09-19T08:02:41;20.30;71.30
81192;DHT22;70665;47.652;-2.730;2023-09-19T08:05:11;20.30;71.00
81192;DHT22;70665;47.652;-2.730;2023-09-19T08:07:43;20.40;71.20
81192;DHT22;70665;47.652;-2.730;2023-09-19T08:10:09;20.30;71.70
81192;DHT22;70665;47.652;-2.730;2023-09-19T08:12:39;20.20;71.50
81192;DHT22;70665;47.652;-2.730;2023-09-19T08:15:13;20.10;71.80
81192;DHT22;70665;47.652;-2.730;2023-09-19T08:17:39;20.20;72.00
81192;DHT22;70665;47.652;-2.730;2023-09-19T08:20:05;20.10;72.20
81192;DHT22;70665;47.652;-2.730;2023-09-19T08:22:31;20.10;73.50
81192;DHT22;70665;47.652;-2.730;2023-09-19T08:24:57;20.00;73.60
81192;DHT22;70665;47.652;-2.730;2023-09-19T08:27:23;20.00;74.60
81192;DHT22;70665;47.652;-2.730;2023-09-19T08:29:52;20.00;74.80
81192;DHT22;70665;47.652;-2.730;2023-09-19T08:32:18;20.00;74.70
81192;DHT22;70665;47.652;-2.730;2023-09-19T08:34:49;20.10;73.70
81192;DHT22;70665;47.652;-2.730;2023-09-19T08:37:15;20.20;73.30
81192;DHT22;70665;47.652;-2.730;2023-09-19T08:39:44;20.50;72.30
81192;DHT22;70665;47.652;-2.730;2023-09-19T08:42:10;20.70;70.80
81192;DHT22;70665;47.652;-2.730;2023-09-19T08:44:38;21.00;70.10
81192;DHT22;70665;47.652;-2.730;2023-09-19T08:47:15;20.90;69.10
81192;DHT22;70665;47.652;-2.730;2023-09-19T08:50:01;21.20;68.40
81192;DHT22;70665;47.652;-2.730;2023-09-19T08:52:41;21.40;68.30
81192;DHT22;70665;47.652;-2.730;2023-09-19T08:55:07;21.50;67.30
81192;DHT22;70665;47.652;-2.730;2023-09-19T08:57:36;21.70;67.50
81192;DHT22;70665;47.652;-2.730;2023-09-19T09:00:08;21.90;66.50
81192;DHT22;70665;47.652;-2.730;2023-09-19T09:02:40;22.10;65.60
81192;DHT22;70665;47.652;-2.730;2023-09-19T09:05:09;22.10;65.20
81192;DHT22;70665;47.652;-2.730;2023-09-19T09:07:39;22.10;65.00
81192;DHT22;70665;47.652;-2.730;2023-09-19T09:10:06;22.00;63.80
81192;DHT22;70665;47.652;-2.730;2023-09-19T09:12:33;22.00;64.40
81192;DHT22;70665;47.652;-2.730;2023-09-19T09:15:02;22.00;64.00
81192;DHT22;70665;47.652;-2.730;2023-09-19T09:17:29;22.00;65.10
81192;DHT22;70665;47.652;-2.730;2023-09-19T09:19:56;22.00;64.70
81192;DHT22;70665;47.652;-2.730;2023-09-19T09:22:22;22.10;64.90
81192;DHT22;70665;47.652;-2.730;2023-09-19T09:24:53;22.10;63.60
81192;DHT22;70665;47.652;-2.730;2023-09-19T09:27:20;22.00;65.30
81192;DHT22;70665;47.652;-2.730;2023-09-19T09:29:49;21.90;64.00
81192;DHT22;70665;47.652;-2.730;2023-09-19T09:32:19;21.90;63.30
81192;DHT22;70665;47.652;-2.730;2023-09-19T09:34:47;21.90;63.80
81192;DHT22;70665;47.652;-2.730;2023-09-19T09:37:15;21.90;64.30
81192;DHT22;70665;47.652;-2.730;2023-09-19T09:39:58;22.00;64.20
81192;DHT22;70665;47.652;-2.730;2023-09-19T09:42:45;21.90;63.50
81192;DHT22;70665;47.652;-2.730;2023-09-19T09:45:22;22.00;64.70
81192;DHT22;70665;47.652;-2.730;2023-09-19T09:48:03;22.30;63.80
81192;DHT22;70665;47.652;-2.730;2023-09-19T09:50:33;22.70;63.50
81192;DHT22;70665;47.652;-2.730;2023-09-19T09:53:27;22.60;61.30
81192;DHT22;70665;47.652;-2.730;2023-09-19T09:56:06;22.70;62.20
81192;DHT22;70665;47.652;-2.730;2023-09-19T09:58:52;22.90;60.50
81192;DHT22;70665;47.652;-2.730;2023-09-19T10:01:21;23.00;62.00
81192;DHT22;70665;47.652;-2.730;2023-09-19T10:03:47;23.10;61.00
81192;DHT22;70665;47.652;-2.730;2023-09-19T10:06:15;23.00;60.20
81192;DHT22;70665;47.652;-2.730;2023-09-19T10:09:07;23.10;60.10
81192;DHT22;70665;47.652;-2.730;2023-09-19T10:11:45;23.20;58.90
81192;DHT22;70665;47.652;-2.730;2023-09-19T10:14:13;23.30;57.80
81192;DHT22;70665;47.652;-2.730;2023-09-19T10:16:48;23.60;58.10
81192;DHT22;70665;47.652;-2.730;2023-09-19T10:19:37;23.60;56.90
81192;DHT22;70665;47.652;-2.730;2023-09-19T10:22:04;23.30;56.20
81192;DHT22;70665;47.652;-2.730;2023-09-19T10:24:33;23.10;56.60
81192;DHT22;70665;47.652;-2.730;2023-09-19T10:27:02;23.10;59.30
81192;DHT22;70665;47.652;-2.730;2023-09-19T10:29:32;23.10;58.30
81192;DHT22;70665;47.652;-2.730;2023-09-19T10:32:02;23.10;57.30
81192;DHT22;70665;47.652;-2.730;2023-09-19T10:34:34;23.10;59.70
81192;DHT22;70665;47.652;-2.730;2023-09-19T10:37:02;23.10;59.40
81192;DHT22;70665;47.652;-2.730;2023-09-19T10:39:32;23.40;59.80
81192;DHT22;70665;47.652;-2.730;2023-09-19T10:42:02;23.80;60.00
81192;DHT22;70665;47.652;-2.730;2023-09-19T10:44:32;23.60;59.00
81192;DHT22;70665;47.652;-2.730;2023-09-19T10:46:58;23.60;59.10
81192;DHT22;70665;47.652;-2.730;2023-09-19T10:49:24;23.40;59.80
81192;DHT22;70665;47.652;-2.730;2023-09-19T10:51:54;23.30;56.90
81192;DHT22;70665;47.652;-2.730;2023-09-19T10:54:25;23.20;58.10
81192;DHT22;70665;47.652;-2.730;2023-09-19T10:56:52;23.10;58.80
81192;DHT22;70665;47.652;-2.730;2023-09-19T10:59:20;23.30;58.40
81192;DHT22;70665;47.652;-2.730;2023-09-19T11:01:54;23.50;58.20
81192;DHT22;70665;47.652;-2.730;2023-09-19T11:04:34;23.50;58.20
81192;DHT22;70665;47.652;-2.730;2023-09-19T11:12:12;23.60;59.50
81192;DHT22;70665;47.652;-2.730;2023-09-19T11:14:39;23.50;60.10
81192;DHT22;70665;47.652;-2.730;2023-09-19T11:33:28;23.40;60.40
81192;DHT22;70665;47.652;-2.730;2023-09-19T11:43:50;23.50;57.30
81192;DHT22;70665;47.652;-2.730;2023-09-19T11:46:17;23.60;60.20
81192;DHT22;70665;47.652;-2.730;2023-09-19T11:48:48;23.50;59.40
81192;DHT22;70665;47.652;-2.730;2023-09-19T11:51:17;23.50;58.30
81192;DHT22;70665;47.652;-2.730;2023-09-19T11:53:57;23.50;58.50
81192;DHT22;70665;47.652;-2.730;2023-09-19T11:56:26;23.60;60.20
81192;DHT22;70665;47.652;-2.730;2023-09-19T11:58:57;23.70;59.00
81192;DHT22;70665;47.652;-2.730;2023-09-19T12:01:32;23.60;58.40
81192;DHT22;70665;47.652;-2.730;2023-09-19T12:04:01;23.70;58.60
81192;DHT22;70665;47.652;-2.730;2023-09-19T12:06:28;23.80;57.90
81192;DHT22;70665;47.652;-2.730;2023-09-19T12:09:02;23.80;59.80
81192;DHT22;70665;47.652;-2.730;2023-09-19T12:11:32;23.70;59.60
81192;DHT22;70665;47.652;-2.730;2023-09-19T12:13:59;23.60;60.30
81192;DHT22;70665;47.652;-2.730;2023-09-19T12:16:26;23.50;59.40
81192;DHT22;70665;47.652;-2.730;2023-09-19T12:18:56;23.30;59.00
81192;DHT22;70665;47.652;-2.730;2023-09-19T12:21:31;23.20;59.80
81192;DHT22;70665;47.652;-2.730;2023-09-19T12:24:07;23.10;59.80
81192;DHT22;70665;47.652;-2.730;2023-09-19T12:26:45;23.00;60.30
81192;DHT22;70665;47.652;-2.730;2023-09-19T12:29:20;23.10;61.40
81192;DHT22;70665;47.652;-2.730;2023-09-19T12:34:21;23.00;61.90
81192;DHT22;70665;47.652;-2.730;2023-09-19T12:36:48;23.00;60.20
81192;DHT22;70665;47.652;-2.730;2023-09-19T12:39:23;22.90;61.00
81192;DHT22;70665;47.652;-2.730;2023-09-19T12:41:52;23.10;61.30
81192;DHT22;70665;47.652;-2.730;2023-09-19T12:44:19;23.10;61.20
81192;DHT22;70665;47.652;-2.730;2023-09-19T12:46:45;23.00;60.90
81192;DHT22;70665;47.652;-2.730;2023-09-19T12:49:18;22.90;60.70
81192;DHT22;70665;47.652;-2.730;2023-09-19T12:51:45;23.00;61.90
81192;DHT22;70665;47.652;-2.730;2023-09-19T12:54:11;22.90;61.40
81192;DHT22;70665;47.652;-2.730;2023-09-19T12:56:41;22.80;62.10
81192;DHT22;70665;47.652;-2.730;2023-09-19T12:59:14;23.00;63.00
81192;DHT22;70665;47.652;-2.730;2023-09-19T13:01:41;23.40;60.90
81192;DHT22;70665;47.652;-2.730;2023-09-19T13:04:17;23.50;57.20
81192;DHT22;70665;47.652;-2.730;2023-09-19T13:06:51;23.50;58.10
81192;DHT22;70665;47.652;-2.730;2023-09-19T13:09:19;23.40;57.40
81192;DHT22;70665;47.652;-2.730;2023-09-19T13:11:46;23.40;57.70
81192;DHT22;70665;47.652;-2.730;2023-09-19T13:14:14;23.40;58.40
81192;DHT22;70665;47.652;-2.730;2023-09-19T13:19:51;23.70;57.70
81192;DHT22;70665;47.652;-2.730;2023-09-19T13:22:43;23.70;56.70
81192;DHT22;70665;47.652;-2.730;2023-09-19T13:25:17;23.70;56.40
81192;DHT22;70665;47.652;-2.730;2023-09-19T13:27:45;24.00;58.00
81192;DHT22;70665;47.652;-2.730;2023-09-19T13:30:12;24.30;57.60
81192;DHT22;70665;47.652;-2.730;2023-09-19T13:32:37;24.40;54.00
81192;DHT22;70665;47.652;-2.730;2023-09-19T13:35:06;24.30;54.20
81192;DHT22;70665;47.652;-2.730;2023-09-19T13:37:34;24.20;54.30
81192;DHT22;70665;47.652;-2.730;2023-09-19T13:40:03;24.10;54.60
81192;DHT22;70665;47.652;-2.730;2023-09-19T13:42:30;24.10;54.90
81192;DHT22;70665;47.652;-2.730;2023-09-19T13:44:57;24.40;55.90
81192;DHT22;70665;47.652;-2.730;2023-09-19T13:47:22;24.60;55.20
81192;DHT22;70665;47.652;-2.730;2023-09-19T13:49:50;24.50;55.50
81192;DHT22;70665;47.652;-2.730;2023-09-19T13:52:19;24.40;55.60
81192;DHT22;70665;47.652;-2.730;2023-09-19T13:54:44;24.20;57.10
81192;DHT22;70665;47.652;-2.730;2023-09-19T13:57:10;24.10;57.70
81192;DHT22;70665;47.652;-2.730;2023-09-19T13:59:35;24.20;58.20
81192;DHT22;70665;47.652;-2.730;2023-09-19T14:02:01;24.10;58.50
81192;DHT22;70665;47.652;-2.730;2023-09-19T14:04:31;24.10;57.90
81192;DHT22;70665;47.652;-2.730;2023-09-19T14:06:57;24.00;59.40
81192;DHT22;70665;47.652;-2.730;2023-09-19T14:09:23;24.00;59.50
81192;DHT22;70665;47.652;-2.730;2023-09-19T14:11:50;23.80;58.70
81192;DHT22;70665;47.652;-2.730;2023-09-19T14:14:21;24.20;58.00
81192;DHT22;70665;47.652;-2.730;2023-09-19T14:16:49;24.10;56.80
81192;DHT22;70665;47.652;-2.730;2023-09-19T14:19:15;24.10;56.10
81192;DHT22;70665;47.652;-2.730;2023-09-19T14:21:42;24.00;57.40
81192;DHT22;70665;47.652;-2.730;2023-09-19T14:24:08;23.90;57.60
81192;DHT22;70665;47.652;-2.730;2023-09-19T14:26:35;23.90;58.10
81192;DHT22;70665;47.652;-2.730;2023-09-19T14:29:02;24.00;57.80
81192;DHT22;70665;47.652;-2.730;2023-09-19T14:31:28;24.10;58.10
81192;DHT22;70665;47.652;-2.730;2023-09-19T14:33:54;24.30;58.40
81192;DHT22;70665;47.652;-2.730;2023-09-19T14:36:21;24.70;57.40
81192;DHT22;70665;47.652;-2.730;2023-09-19T14:38:47;25.10;55.30
81192;DHT22;70665;47.652;-2.730;2023-09-19T14:41:13;25.30;54.60
81192;DHT22;70665;47.652;-2.730;2023-09-19T14:43:39;25.30;54.00
81192;DHT22;70665;47.652;-2.730;2023-09-19T14:46:05;25.00;54.50
81192;DHT22;70665;47.652;-2.730;2023-09-19T14:48:36;25.60;55.00
81192;DHT22;70665;47.652;-2.730;2023-09-19T14:51:05;25.60;53.70
81192;DHT22;70665;47.652;-2.730;2023-09-19T14:53:32;25.70;54.30
81192;DHT22;70665;47.652;-2.730;2023-09-19T14:56:01;25.60;53.70
81192;DHT22;70665;47.652;-2.730;2023-09-19T14:58:33;25.40;56.30
81192;DHT22;70665;47.652;-2.730;2023-09-19T15:01:06;25.70;54.20
81192;DHT22;70665;47.652;-2.730;2023-09-19T15:03:34;25.60;53.80
81192;DHT22;70665;47.652;-2.730;2023-09-19T15:06:05;26.20;52.80
81192;DHT22;70665;47.652;-2.730;2023-09-19T15:08:32;25.80;53.40
81192;DHT22;70665;47.652;-2.730;2023-09-19T15:11:03;25.50;54.00
81192;DHT22;70665;47.652;-2.730;2023-09-19T15:13:31;25.40;54.10
81192;DHT22;70665;47.652;-2.730;2023-09-19T15:18:27;26.60;50.60
81192;DHT22;70665;47.652;-2.730;2023-09-19T15:20:52;27.00;49.60
81192;DHT22;70665;47.652;-2.730;2023-09-19T15:23:20;27.30;48.80
81192;DHT22;70665;47.652;-2.730;2023-09-19T15:25:49;28.00;48.30
81192;DHT22;70665;47.652;-2.730;2023-09-19T15:28:15;28.40;47.90
81192;DHT22;70665;47.652;-2.730;2023-09-19T15:30:40;28.00;47.40
81192;DHT22;70665;47.652;-2.730;2023-09-19T15:33:06;28.00;49.30
81192;DHT22;70665;47.652;-2.730;2023-09-19T15:35:32;27.70;48.10
81192;DHT22;70665;47.652;-2.730;2023-09-19T15:37:57;27.90;49.30
81192;DHT22;70665;47.652;-2.730;2023-09-19T15:40:26;28.20;49.30
81192;DHT22;70665;47.652;-2.730;2023-09-19T15:42:54;27.90;50.40
81192;DHT22;70665;47.652;-2.730;2023-09-19T15:45:20;28.20;50.10
81192;DHT22;70665;47.652;-2.730;2023-09-19T15:47:45;28.20;49.80
81192;DHT22;70665;47.652;-2.730;2023-09-19T15:50:11;28.60;49.00
81192;DHT22;70665;47.652;-2.730;2023-09-19T15:52:43;28.70;48.90
81192;DHT22;70665;47.652;-2.730;2023-09-19T15:55:09;27.40;50.90
81192;DHT22;70665;47.652;-2.730;2023-09-19T15:57:38;26.80;52.60
81192;DHT22;70665;47.652;-2.730;2023-09-19T16:00:05;26.60;53.30
81192;DHT22;70665;47.652;-2.730;2023-09-19T16:02:36;26.80;54.00
81192;DHT22;70665;47.652;-2.730;2023-09-19T16:05:02;27.00;55.10
81192;DHT22;70665;47.652;-2.730;2023-09-19T16:07:31;26.40;54.60
81192;DHT22;70665;47.652;-2.730;2023-09-19T16:09:56;25.70;57.50
81192;DHT22;70665;47.652;-2.730;2023-09-19T16:12:22;25.10;57.80
81192;DHT22;70665;47.652;-2.730;2023-09-19T16:14:48;24.60;59.90
81192;DHT22;70665;47.652;-2.730;2023-09-19T16:17:14;24.10;61.10